sensor_id;sensor_type;location;lat;lon;timestamp;P1;durP1;ratioP1;P2;durP2;ratioP2
42614;SDS011;28754;47.700;7.924;2023-03-01T00:02:36;27.63;;;16.90;;
42614;SDS011;28754;47.700;7.924;2023-03-01T00:05:23;23.63;;;16.27;;
42614;SDS011;28754;47.700;7.924;2023-03-01T00:08:09;25.03;;;17.33;;
42614;SDS011;28754;47.700;7.924;2023-03-01T00:11:00;28.93;;;17.23;;
42614;SDS011;28754;47.700;7.924;2023-03-01T00:13:55;28.60;;;17.87;;
42614;SDS011;28754;47.700;7.924;2023-03-01T00:16:44;27.00;;;17.37;;
42614;SDS011;28754;47.700;7.924;2023-03-01T00:19:32;26.07;;;16.20;;
42614;SDS011;28754;47.700;7.924;2023-03-01T00:22:18;24.90;;;15.63;;
42614;SDS011;28754;47.700;7.924;2023-03-01T00:25:05;27.10;;;18.57;;
42614;SDS011;28754;47.700;7.924;2023-03-01T00:27:52;29.20;;;17.97;;
42614;SDS011;28754;47.700;7.924;2023-03-01T00:30:39;26.67;;;17.00;;
42614;SDS011;28754;47.700;7.924;2023-03-01T00:33:26;25.97;;;16.40;;
42614;SDS011;28754;47.700;7.924;2023-03-01T00:36:13;27.67;;;18.27;;
42614;SDS011;28754;47.700;7.924;2023-03-01T00:39:02;25.67;;;17.50;;
42614;SDS011;28754;47.700;7.924;2023-03-01T00:41:52;27.03;;;18.63;;
42614;SDS011;28754;47.700;7.924;2023-03-01T00:44:38;27.07;;;19.27;;
42614;SDS011;28754;47.700;7.924;2023-03-01T00:47:25;26.70;;;18.00;;
42614;SDS011;28754;47.700;7.924;2023-03-01T00:50:15;30.13;;;20.43;;
42614;SDS011;28754;47.700;7.924;2023-03-01T00:53:03;27.27;;;17.33;;
42614;SDS011;28754;47.700;7.924;2023-03-01T00:55:51;28.03;;;18.77;;
42614;SDS011;28754;47.700;7.924;2023-03-01T00:58:37;32.60;;;18.90;;
42614;SDS011;28754;47.700;7.924;2023-03-01T01:01:25;27.63;;;18.03;;
42614;SDS011;28754;47.700;7.924;2023-03-01T01:04:18;24.37;;;17.10;;
42614;SDS011;28754;47.700;7.924;2023-03-01T01:07:04;27.07;;;17.50;;
42614;SDS011;28754;47.700;7.924;2023-03-01T01:09:51;26.23;;;18.83;;
42614;SDS011;28754;47.700;7.924;2023-03-01T01:12:38;27.43;;;18.07;;
42614;SDS011;28754;47.700;7.924;2023-03-01T01:15:24;27.47;;;17.83;;
42614;SDS011;28754;47.700;7.924;2023-03-01T01:18:11;24.80;;;18.00;;
42614;SDS011;28754;47.700;7.924;2023-03-01T01:21:02;32.67;;;19.17;;
42614;SDS011;28754;47.700;7.924;2023-03-01T01:23:56;22.30;;;16.23;;
42614;SDS011;28754;47.700;7.924;2023-03-01T01:26:43;30.33;;;19.03;;
42614;SDS011;28754;47.700;7.924;2023-03-01T01:29:30;31.77;;;17.67;;
42614;SDS011;28754;47.700;7.924;2023-03-01T01:32:16;27.47;;;17.80;;
42614;SDS011;28754;47.700;7.924;2023-03-01T01:35:03;29.13;;;17.00;;
42614;SDS011;28754;47.700;7.924;2023-03-01T01:37:50;26.63;;;18.50;;
42614;SDS011;28754;47.700;7.924;2023-03-01T01:40:42;30.47;;;18.53;;
42614;SDS011;28754;47.700;7.924;2023-03-01T01:43:34;31.33;;;17.80;;
42614;SDS011;28754;47.700;7.924;2023-03-01T01:46:30;27.60;;;18.47;;
42614;SDS011;28754;47.700;7.924;2023-03-01T01:49:38;28.92;;;18.38;;
42614;SDS011;28754;47.700;7.924;2023-03-01T01:52:37;30.00;;;18.20;;
42614;SDS011;28754;47.700;7.924;2023-03-01T01:55:25;31.40;;;19.00;;
42614;SDS011;28754;47.700;7.924;2023-03-01T01:58:14;28.07;;;19.50;;
42614;SDS011;28754;47.700;7.924;2023-03-01T02:01:06;30.53;;;18.43;;
42614;SDS011;28754;47.700;7.924;2023-03-01T02:03:54;29.67;;;19.83;;
42614;SDS011;28754;47.700;7.924;2023-03-01T02:06:41;28.27;;;19.67;;
42614;SDS011;28754;47.700;7.924;2023-03-01T02:09:38;29.77;;;20.20;;
42614;SDS011;28754;47.700;7.924;2023-03-01T02:12:29;28.50;;;18.87;;
42614;SDS011;28754;47.700;7.924;2023-03-01T02:15:17;27.17;;;18.73;;
42614;SDS011;28754;47.700;7.924;2023-03-01T02:18:04;27.60;;;19.00;;
42614;SDS011;28754;47.700;7.924;2023-03-01T02:27:51;28.57;;;19.10;;
42614;SDS011;28754;47.700;7.924;2023-03-01T02:30:54;30.87;;;19.00;;
42614;SDS011;28754;47.700;7.924;2023-03-01T02:33:59;26.58;;;18.42;;
42614;SDS011;28754;47.700;7.924;2023-03-01T02:36:54;27.90;;;18.07;;
42614;SDS011;28754;47.700;7.924;2023-03-01T02:39:58;27.65;;;17.38;;
42614;SDS011;28754;47.700;7.924;2023-03-01T02:42:53;31.93;;;19.60;;
42614;SDS011;28754;47.700;7.924;2023-03-01T02:45:48;28.97;;;19.03;;
42614;SDS011;28754;47.700;7.924;2023-03-01T02:48:40;29.83;;;18.20;;
42614;SDS011;28754;47.700;7.924;2023-03-01T02:51:41;29.63;;;18.77;;
42614;SDS011;28754;47.700;7.924;2023-03-01T02:54:46;28.67;;;19.07;;
42614;SDS011;28754;47.700;7.924;2023-03-01T02:57:52;29.73;;;18.17;;
42614;SDS011;28754;47.700;7.924;2023-03-01T03:00:40;27.90;;;18.33;;
42614;SDS011;28754;47.700;7.924;2023-03-01T03:03:33;30.57;;;18.27;;
42614;SDS011;28754;47.700;7.924;2023-03-01T03:06:20;28.57;;;17.60;;
42614;SDS011;28754;47.700;7.924;2023-03-01T03:09:07;25.70;;;16.97;;
42614;SDS011;28754;47.700;7.924;2023-03-01T03:11:53;26.20;;;18.03;;
42614;SDS011;28754;47.700;7.924;2023-03-01T03:14:41;32.93;;;18.93;;
42614;SDS011;28754;47.700;7.924;2023-03-01T03:17:28;28.77;;;17.00;;
42614;SDS011;28754;47.700;7.924;2023-03-01T03:20:15;31.57;;;19.03;;
42614;SDS011;28754;47.700;7.924;2023-03-01T03:23:05;28.60;;;17.70;;
42614;SDS011;28754;47.700;7.924;2023-03-01T03:25:52;27.90;;;19.53;;
42614;SDS011;28754;47.700;7.924;2023-03-01T03:28:39;30.03;;;17.77;;
42614;SDS011;28754;47.700;7.924;2023-03-01T03:31:25;33.97;;;18.27;;
42614;SDS011;28754;47.700;7.924;2023-03-01T03:34:12;26.40;;;17.23;;
42614;SDS011;28754;47.700;7.924;2023-03-01T03:37:03;30.83;;;19.63;;
42614;SDS011;28754;47.700;7.924;2023-03-01T03:40:10;26.87;;;18.77;;
42614;SDS011;28754;47.700;7.924;2023-03-01T03:43:01;29.10;;;19.43;;
42614;SDS011;28754;47.700;7.924;2023-03-01T03:45:58;31.67;;;19.73;;
42614;SDS011;28754;47.700;7.924;2023-03-01T03:48:45;29.57;;;19.13;;
42614;SDS011;28754;47.700;7.924;2023-03-01T03:51:32;28.93;;;18.03;;
42614;SDS011;28754;47.700;7.924;2023-03-01T03:54:18;29.10;;;18.60;;
42614;SDS011;28754;47.700;7.924;2023-03-01T03:57:05;28.23;;;19.00;;
42614;SDS011;28754;47.700;7.924;2023-03-01T03:59:53;28.10;;;16.23;;
42614;SDS011;28754;47.700;7.924;2023-03-01T04:02:40;27.80;;;18.80;;
42614;SDS011;28754;47.700;7.924;2023-03-01T04:05:28;31.83;;;18.90;;
42614;SDS011;28754;47.700;7.924;2023-03-01T04:08:16;32.00;;;19.30;;
42614;SDS011;28754;47.700;7.924;2023-03-01T04:11:08;31.77;;;19.50;;
42614;SDS011;28754;47.700;7.924;2023-03-01T04:14:13;28.30;;;17.53;;
42614;SDS011;28754;47.700;7.924;2023-03-01T04:17:00;29.07;;;16.90;;
42614;SDS011;28754;47.700;7.924;2023-03-01T04:19:47;42.43;;;20.90;;
42614;SDS011;28754;47.700;7.924;2023-03-01T04:22:34;30.07;;;18.93;;
42614;SDS011;28754;47.700;7.924;2023-03-01T04:25:21;30.23;;;18.20;;
42614;SDS011;28754;47.700;7.924;2023-03-01T04:28:11;28.90;;;16.63;;
42614;SDS011;28754;47.700;7.924;2023-03-01T04:30:58;29.30;;;17.33;;
42614;SDS011;28754;47.700;7.924;2023-03-01T04:33:58;31.03;;;18.90;;
42614;SDS011;28754;47.700;7.924;2023-03-01T04:36:45;30.97;;;17.53;;
42614;SDS011;28754;47.700;7.924;2023-03-01T04:39:32;32.93;;;19.43;;
42614;SDS011;28754;47.700;7.924;2023-03-01T04:42:19;33.40;;;19.73;;
42614;SDS011;28754;47.700;7.924;2023-03-01T04:45:06;34.33;;;20.23;;
42614;SDS011;28754;47.700;7.924;2023-03-01T04:47:58;35.10;;;22.30;;
42614;SDS011;28754;47.700;7.924;2023-03-01T04:50:45;27.93;;;17.70;;
42614;SDS011;28754;47.700;7.924;2023-03-01T04:53:32;36.97;;;20.27;;
42614;SDS011;28754;47.700;7.924;2023-03-01T04:56:21;32.43;;;19.17;;
42614;SDS011;28754;47.700;7.924;2023-03-01T04:59:08;37.20;;;20.73;;
42614;SDS011;28754;47.700;7.924;2023-03-01T05:01:56;27.00;;;16.27;;
42614;SDS011;28754;47.700;7.924;2023-03-01T05:04:43;33.80;;;21.17;;
42614;SDS011;28754;47.700;7.924;2023-03-01T05:07:29;31.30;;;19.03;;
42614;SDS011;28754;47.700;7.924;2023-03-01T05:10:16;37.60;;;21.13;;
42614;SDS011;28754;47.700;7.924;2023-03-01T05:13:03;37.00;;;22.30;;
42614;SDS011;28754;47.700;7.924;2023-03-01T05:15:53;37.20;;;20.00;;
42614;SDS011;28754;47.700;7.924;2023-03-01T05:18:45;36.27;;;20.77;;
42614;SDS011;28754;47.700;7.924;2023-03-01T05:21:32;31.13;;;17.53;;
42614;SDS011;28754;47.700;7.924;2023-03-01T05:24:19;39.77;;;20.43;;
42614;SDS011;28754;47.700;7.924;2023-03-01T05:27:06;30.93;;;18.63;;
42614;SDS011;28754;47.700;7.924;2023-03-01T05:29:52;38.23;;;21.80;;
42614;SDS011;28754;47.700;7.924;2023-03-01T05:32:43;38.50;;;21.80;;
42614;SDS011;28754;47.700;7.924;2023-03-01T05:35:33;35.47;;;20.00;;
42614;SDS011;28754;47.700;7.924;2023-03-01T05:38:20;38.70;;;21.60;;
42614;SDS011;28754;47.700;7.924;2023-03-01T05:41:13;36.60;;;21.20;;
42614;SDS011;28754;47.700;7.924;2023-03-01T05:44:02;39.15;;;22.73;;
42614;SDS011;28754;47.700;7.924;2023-03-01T05:46:50;37.93;;;22.50;;
42614;SDS011;28754;47.700;7.924;2023-03-01T05:49:37;37.13;;;19.47;;
42614;SDS011;28754;47.700;7.924;2023-03-01T05:52:24;39.67;;;20.50;;
42614;SDS011;28754;47.700;7.924;2023-03-01T05:55:10;32.67;;;21.23;;
42614;SDS011;28754;47.700;7.924;2023-03-01T05:57:58;32.70;;;19.27;;
42614;SDS011;28754;47.700;7.924;2023-03-01T06:00:51;37.93;;;21.53;;
42614;SDS011;28754;47.700;7.924;2023-03-01T06:03:38;34.63;;;19.37;;
42614;SDS011;28754;47.700;7.924;2023-03-01T06:06:25;37.70;;;21.63;;
42614;SDS011;28754;47.700;7.924;2023-03-01T06:09:12;37.50;;;21.87;;
42614;SDS011;28754;47.700;7.924;2023-03-01T06:11:58;35.87;;;21.17;;
42614;SDS011;28754;47.700;7.924;2023-03-01T06:14:46;32.50;;;20.67;;
42614;SDS011;28754;47.700;7.924;2023-03-01T06:17:33;37.13;;;22.53;;
42614;SDS011;28754;47.700;7.924;2023-03-01T06:20:24;33.23;;;20.40;;
42614;SDS011;28754;47.700;7.924;2023-03-01T06:23:13;37.73;;;22.40;;
42614;SDS011;28754;47.700;7.924;2023-03-01T06:26:00;32.67;;;20.97;;
42614;SDS011;28754;47.700;7.924;2023-03-01T06:28:53;34.37;;;21.63;;
42614;SDS011;28754;47.700;7.924;2023-03-01T06:31:39;33.87;;;20.87;;
42614;SDS011;28754;47.700;7.924;2023-03-01T06:34:26;37.77;;;22.30;;
42614;SDS011;28754;47.700;7.924;2023-03-01T06:37:13;32.57;;;19.67;;
42614;SDS011;28754;47.700;7.924;2023-03-01T06:39:59;32.13;;;21.63;;
42614;SDS011;28754;47.700;7.924;2023-03-01T06:42:50;41.17;;;22.20;;
42614;SDS011;28754;47.700;7.924;2023-03-01T06:45:37;33.63;;;19.57;;
42614;SDS011;28754;47.700;7.924;2023-03-01T06:48:24;38.67;;;22.40;;
42614;SDS011;28754;47.700;7.924;2023-03-01T06:51:10;35.03;;;20.27;;
42614;SDS011;28754;47.700;7.924;2023-03-01T06:53:57;25.73;;;16.40;;
42614;SDS011;28754;47.700;7.924;2023-03-01T06:56:46;33.80;;;20.40;;
42614;SDS011;28754;47.700;7.924;2023-03-01T06:59:33;37.93;;;22.80;;
42614;SDS011;28754;47.700;7.924;2023-03-01T07:02:19;31.47;;;20.50;;
42614;SDS011;28754;47.700;7.924;2023-03-01T07:05:06;37.90;;;21.33;;
42614;SDS011;28754;47.700;7.924;2023-03-01T07:07:53;36.37;;;21.43;;
42614;SDS011;28754;47.700;7.924;2023-03-01T07:10:41;35.30;;;20.53;;
42614;SDS011;28754;47.700;7.924;2023-03-01T07:13:28;32.53;;;21.13;;
42614;SDS011;28754;47.700;7.924;2023-03-01T07:16:14;30.53;;;19.33;;
42614;SDS011;28754;47.700;7.924;2023-03-01T07:19:01;30.30;;;16.70;;
42614;SDS011;28754;47.700;7.924;2023-03-01T07:21:48;32.47;;;21.07;;
42614;SDS011;28754;47.700;7.924;2023-03-01T07:24:34;33.20;;;21.07;;
42614;SDS011;28754;47.700;7.924;2023-03-01T07:27:21;36.53;;;20.17;;
42614;SDS011;28754;47.700;7.924;2023-03-01T07:30:08;35.60;;;21.87;;
42614;SDS011;28754;47.700;7.924;2023-03-01T07:32:56;31.50;;;20.53;;
42614;SDS011;28754;47.700;7.924;2023-03-01T07:35:44;33.47;;;20.47;;
42614;SDS011;28754;47.700;7.924;2023-03-01T07:38:30;39.20;;;20.37;;
42614;SDS011;28754;47.700;7.924;2023-03-01T07:41:18;32.87;;;20.20;;
42614;SDS011;28754;47.700;7.924;2023-03-01T07:44:04;32.57;;;18.47;;
42614;SDS011;28754;47.700;7.924;2023-03-01T07:46:51;31.83;;;20.57;;
42614;SDS011;28754;47.700;7.924;2023-03-01T07:49:42;34.83;;;19.03;;
42614;SDS011;28754;47.700;7.924;2023-03-01T07:52:28;32.27;;;19.47;;
42614;SDS011;28754;47.700;7.924;2023-03-01T07:55:16;34.90;;;20.47;;
42614;SDS011;28754;47.700;7.924;2023-03-01T07:58:03;34.83;;;21.57;;
42614;SDS011;28754;47.700;7.924;2023-03-01T08:00:50;38.20;;;20.47;;
42614;SDS011;28754;47.700;7.924;2023-03-01T08:03:37;38.93;;;23.93;;
42614;SDS011;28754;47.700;7.924;2023-03-01T08:06:24;35.87;;;21.50;;
42614;SDS011;28754;47.700;7.924;2023-03-01T08:09:10;32.07;;;20.20;;
42614;SDS011;28754;47.700;7.924;2023-03-01T08:11:57;30.47;;;18.93;;
42614;SDS011;28754;47.700;7.924;2023-03-01T08:14:47;29.93;;;19.27;;
42614;SDS011;28754;47.700;7.924;2023-03-01T08:17:33;38.33;;;21.73;;
42614;SDS011;28754;47.700;7.924;2023-03-01T08:20:20;32.73;;;19.03;;
42614;SDS011;28754;47.700;7.924;2023-03-01T08:23:07;32.13;;;20.90;;
42614;SDS011;28754;47.700;7.924;2023-03-01T08:25:53;41.83;;;23.13;;
42614;SDS011;28754;47.700;7.924;2023-03-01T08:28:40;43.63;;;25.77;;
42614;SDS011;28754;47.700;7.924;2023-03-01T08:31:35;50.10;;;25.20;;
42614;SDS011;28754;47.700;7.924;2023-03-01T08:34:25;37.77;;;21.00;;
42614;SDS011;28754;47.700;7.924;2023-03-01T08:37:12;36.47;;;22.37;;
42614;SDS011;28754;47.700;7.924;2023-03-01T08:39:59;35.17;;;20.67;;
42614;SDS011;28754;47.700;7.924;2023-03-01T08:42:46;35.37;;;21.83;;
42614;SDS011;28754;47.700;7.924;2023-03-01T08:45:33;35.73;;;21.57;;
42614;SDS011;28754;47.700;7.924;2023-03-01T08:48:20;36.13;;;20.03;;
42614;SDS011;28754;47.700;7.924;2023-03-01T08:51:08;37.67;;;23.70;;
42614;SDS011;28754;47.700;7.924;2023-03-01T08:54:06;34.53;;;21.53;;
42614;SDS011;28754;47.700;7.924;2023-03-01T08:56:57;32.93;;;20.73;;
42614;SDS011;28754;47.700;7.924;2023-03-01T08:59:44;41.20;;;22.77;;
42614;SDS011;28754;47.700;7.924;2023-03-01T09:02:31;32.63;;;20.23;;
42614;SDS011;28754;47.700;7.924;2023-03-01T09:05:18;39.07;;;21.00;;
42614;SDS011;28754;47.700;7.924;2023-03-01T09:08:04;35.77;;;22.10;;
42614;SDS011;28754;47.700;7.924;2023-03-01T09:10:51;30.80;;;19.23;;
42614;SDS011;28754;47.700;7.924;2023-03-01T09:13:38;54.27;;;29.30;;
42614;SDS011;28754;47.700;7.924;2023-03-01T09:16:25;37.43;;;22.97;;
42614;SDS011;28754;47.700;7.924;2023-03-01T09:19:11;34.87;;;19.17;;
42614;SDS011;28754;47.700;7.924;2023-03-01T09:21:58;27.73;;;18.37;;
42614;SDS011;28754;47.700;7.924;2023-03-01T09:24:45;28.57;;;17.70;;
42614;SDS011;28754;47.700;7.924;2023-03-01T09:27:31;32.77;;;19.30;;
42614;SDS011;28754;47.700;7.924;2023-03-01T09:30:18;37.90;;;21.90;;
42614;SDS011;28754;47.700;7.924;2023-03-01T09:33:05;33.07;;;20.10;;
42614;SDS011;28754;47.700;7.924;2023-03-01T09:35:56;34.77;;;20.97;;
42614;SDS011;28754;47.700;7.924;2023-03-01T09:38:48;29.40;;;18.90;;
42614;SDS011;28754;47.700;7.924;2023-03-01T09:44:44;29.30;;;18.97;;
42614;SDS011;28754;47.700;7.924;2023-03-01T09:47:45;31.37;;;19.70;;
42614;SDS011;28754;47.700;7.924;2023-03-01T09:50:35;28.50;;;18.07;;
42614;SDS011;28754;47.700;7.924;2023-03-01T09:53:31;27.67;;;17.98;;
42614;SDS011;28754;47.700;7.924;2023-03-01T09:56:22;34.37;;;20.97;;
42614;SDS011;28754;47.700;7.924;2023-03-01T09:59:26;30.53;;;18.80;;
42614;SDS011;28754;47.700;7.924;2023-03-01T10:02:28;32.17;;;19.97;;
42614;SDS011;28754;47.700;7.924;2023-03-01T10:05:34;31.83;;;19.33;;
42614;SDS011;28754;47.700;7.924;2023-03-01T10:18:01;34.03;;;20.60;;
42614;SDS011;28754;47.700;7.924;2023-03-01T10:21:00;30.57;;;18.63;;
42614;SDS011;28754;47.700;7.924;2023-03-01T10:24:04;31.50;;;18.57;;
42614;SDS011;28754;47.700;7.924;2023-03-01T10:27:03;30.20;;;17.93;;
42614;SDS011;28754;47.700;7.924;2023-03-01T10:30:05;31.42;;;20.00;;
42614;SDS011;28754;47.700;7.924;2023-03-01T10:33:10;34.40;;;19.83;;
42614;SDS011;28754;47.700;7.924;2023-03-01T10:36:09;37.60;;;19.77;;
42614;SDS011;28754;47.700;7.924;2023-03-01T10:38:56;33.07;;;18.93;;
42614;SDS011;28754;47.700;7.924;2023-03-01T10:41:54;29.67;;;18.10;;
42614;SDS011;28754;47.700;7.924;2023-03-01T10:44:46;26.30;;;17.80;;
42614;SDS011;28754;47.700;7.924;2023-03-01T10:47:35;30.73;;;18.63;;
42614;SDS011;28754;47.700;7.924;2023-03-01T10:50:22;29.10;;;17.87;;
42614;SDS011;28754;47.700;7.924;2023-03-01T10:53:19;28.33;;;18.80;;
42614;SDS011;28754;47.700;7.924;2023-03-01T10:56:15;33.10;;;19.75;;
42614;SDS011;28754;47.700;7.924;2023-03-01T10:59:03;35.17;;;19.60;;
42614;SDS011;28754;47.700;7.924;2023-03-01T11:05:17;44.83;;;23.30;;
42614;SDS011;28754;47.700;7.924;2023-03-01T11:08:06;33.60;;;20.60;;
42614;SDS011;28754;47.700;7.924;2023-03-01T11:10:52;44.75;;;23.65;;
42614;SDS011;28754;47.700;7.924;2023-03-01T11:14:20;41.88;;;21.25;;
42614;SDS011;28754;47.700;7.924;2023-03-01T11:17:15;31.63;;;19.33;;
42614;SDS011;28754;47.700;7.924;2023-03-01T11:20:22;28.08;;;17.13;;
42614;SDS011;28754;47.700;7.924;2023-03-01T11:23:11;33.08;;;18.85;;
42614;SDS011;28754;47.700;7.924;2023-03-01T11:26:01;28.48;;;16.48;;
42614;SDS011;28754;47.700;7.924;2023-03-01T11:28:54;30.65;;;17.55;;
42614;SDS011;28754;47.700;7.924;2023-03-01T11:31:46;34.63;;;16.70;;
42614;SDS011;28754;47.700;7.924;2023-03-01T11:34:40;44.70;;;19.20;;
42614;SDS011;28754;47.700;7.924;2023-03-01T11:37:36;32.22;;;19.92;;
42614;SDS011;28754;47.700;7.924;2023-03-01T11:56:21;25.40;;;15.52;;
42614;SDS011;28754;47.700;7.924;2023-03-01T12:00:31;26.67;;;16.38;;
42614;SDS011;28754;47.700;7.924;2023-03-01T12:09:59;31.33;;;17.17;;
42614;SDS011;28754;47.700;7.924;2023-03-01T12:13:18;29.92;;;18.73;;
42614;SDS011;28754;47.700;7.924;2023-03-01T12:29:25;23.95;;;14.27;;
42614;SDS011;28754;47.700;7.924;2023-03-01T12:32:45;27.05;;;14.35;;
42614;SDS011;28754;47.700;7.924;2023-03-01T12:36:07;22.05;;;13.75;;
42614;SDS011;28754;47.700;7.924;2023-03-01T13:13:42;25.50;;;15.63;;
42614;SDS011;28754;47.700;7.924;2023-03-01T13:19:22;26.55;;;16.13;;
42614;SDS011;28754;47.700;7.924;2023-03-01T13:22:26;27.02;;;16.08;;
42614;SDS011;28754;47.700;7.924;2023-03-01T13:25:18;27.45;;;18.67;;
42614;SDS011;28754;47.700;7.924;2023-03-01T13:34:06;26.33;;;16.13;;
42614;SDS011;28754;47.700;7.924;2023-03-01T13:37:35;24.20;;;14.90;;
42614;SDS011;28754;47.700;7.924;2023-03-01T13:46:37;25.58;;;14.50;;
42614;SDS011;28754;47.700;7.924;2023-03-01T13:49:28;37.08;;;20.20;;
42614;SDS011;28754;47.700;7.924;2023-03-01T13:52:34;26.30;;;16.58;;
42614;SDS011;28754;47.700;7.924;2023-03-01T13:58:53;27.77;;;15.68;;
42614;SDS011;28754;47.700;7.924;2023-03-01T14:04:43;21.63;;;13.73;;
42614;SDS011;28754;47.700;7.924;2023-03-01T14:07:42;26.90;;;16.73;;
42614;SDS011;28754;47.700;7.924;2023-03-01T14:10:40;30.48;;;15.63;;
42614;SDS011;28754;47.700;7.924;2023-03-01T14:17:33;23.27;;;14.65;;
42614;SDS011;28754;47.700;7.924;2023-03-01T14:20:38;23.33;;;13.32;;
42614;SDS011;28754;47.700;7.924;2023-03-01T14:23:28;21.77;;;14.32;;
42614;SDS011;28754;47.700;7.924;2023-03-01T14:26:19;25.73;;;13.48;;
42614;SDS011;28754;47.700;7.924;2023-03-01T14:29:23;22.75;;;13.95;;
42614;SDS011;28754;47.700;7.924;2023-03-01T14:32:25;20.83;;;13.95;;
42614;SDS011;28754;47.700;7.924;2023-03-01T14:35:21;22.00;;;13.93;;
42614;SDS011;28754;47.700;7.924;2023-03-01T14:38:58;20.85;;;13.88;;
42614;SDS011;28754;47.700;7.924;2023-03-01T14:41:26;25.58;;;14.57;;
42614;SDS011;28754;47.700;7.924;2023-03-01T14:44:16;17.85;;;12.77;;
42614;SDS011;28754;47.700;7.924;2023-03-01T14:47:23;20.80;;;13.77;;
42614;SDS011;28754;47.700;7.924;2023-03-01T14:50:27;23.17;;;14.10;;
42614;SDS011;28754;47.700;7.924;2023-03-01T14:53:28;29.05;;;14.55;;
42614;SDS011;28754;47.700;7.924;2023-03-01T14:56:16;65.03;;;28.55;;
42614;SDS011;28754;47.700;7.924;2023-03-01T14:59:03;31.35;;;18.27;;
42614;SDS011;28754;47.700;7.924;2023-03-01T15:01:50;30.98;;;19.85;;
42614;SDS011;28754;47.700;7.924;2023-03-01T15:04:41;29.88;;;18.35;;
42614;SDS011;28754;47.700;7.924;2023-03-01T15:07:34;25.00;;;17.67;;
42614;SDS011;28754;47.700;7.924;2023-03-01T15:10:33;22.50;;;15.23;;
42614;SDS011;28754;47.700;7.924;2023-03-01T15:13:23;30.08;;;17.95;;
42614;SDS011;28754;47.700;7.924;2023-03-01T15:16:12;25.60;;;15.90;;
42614;SDS011;28754;47.700;7.924;2023-03-01T15:19:06;25.60;;;15.88;;
42614;SDS011;28754;47.700;7.924;2023-03-01T15:21:53;26.23;;;17.02;;
42614;SDS011;28754;47.700;7.924;2023-03-01T15:24:40;29.40;;;17.90;;
42614;SDS011;28754;47.700;7.924;2023-03-01T15:27:26;29.17;;;15.60;;
42614;SDS011;28754;47.700;7.924;2023-03-01T15:36:36;22.13;;;14.65;;
42614;SDS011;28754;47.700;7.924;2023-03-01T15:39:35;26.65;;;16.35;;
42614;SDS011;28754;47.700;7.924;2023-03-01T15:48:03;26.58;;;16.90;;
42614;SDS011;28754;47.700;7.924;2023-03-01T15:51:03;33.85;;;18.70;;
42614;SDS011;28754;47.700;7.924;2023-03-01T15:53:50;30.67;;;19.17;;
42614;SDS011;28754;47.700;7.924;2023-03-01T15:56:38;28.20;;;16.58;;
42614;SDS011;28754;47.700;7.924;2023-03-01T15:59:27;24.27;;;15.65;;
42614;SDS011;28754;47.700;7.924;2023-03-01T16:02:14;26.35;;;17.50;;
42614;SDS011;28754;47.700;7.924;2023-03-01T16:05:01;28.45;;;17.00;;
42614;SDS011;28754;47.700;7.924;2023-03-01T16:07:49;26.90;;;16.38;;
42614;SDS011;28754;47.700;7.924;2023-03-01T16:10:37;27.27;;;17.75;;
42614;SDS011;28754;47.700;7.924;2023-03-01T16:13:26;54.75;;;22.27;;
42614;SDS011;28754;47.700;7.924;2023-03-01T16:16:14;32.72;;;19.27;;
42614;SDS011;28754;47.700;7.924;2023-03-01T16:19:02;27.65;;;18.13;;
42614;SDS011;28754;47.700;7.924;2023-03-01T16:21:49;26.25;;;18.00;;
42614;SDS011;28754;47.700;7.924;2023-03-01T16:24:35;28.33;;;19.23;;
42614;SDS011;28754;47.700;7.924;2023-03-01T16:27:22;26.23;;;17.92;;
42614;SDS011;28754;47.700;7.924;2023-03-01T16:30:09;39.10;;;24.13;;
42614;SDS011;28754;47.700;7.924;2023-03-01T16:32:57;61.55;;;32.08;;
42614;SDS011;28754;47.700;7.924;2023-03-01T16:35:46;43.72;;;26.02;;
42614;SDS011;28754;47.700;7.924;2023-03-01T16:38:33;32.83;;;20.55;;
42614;SDS011;28754;47.700;7.924;2023-03-01T16:41:21;30.48;;;19.70;;
42614;SDS011;28754;47.700;7.924;2023-03-01T16:44:09;43.13;;;25.13;;
42614;SDS011;28754;47.700;7.924;2023-03-01T16:46:56;39.15;;;20.75;;
42614;SDS011;28754;47.700;7.924;2023-03-01T16:50:23;41.33;;;20.85;;
42614;SDS011;28754;47.700;7.924;2023-03-01T16:53:11;32.70;;;19.92;;
42614;SDS011;28754;47.700;7.924;2023-03-01T16:55:58;37.35;;;19.77;;
42614;SDS011;28754;47.700;7.924;2023-03-01T16:58:45;32.75;;;20.55;;
42614;SDS011;28754;47.700;7.924;2023-03-01T17:01:32;32.88;;;19.38;;
42614;SDS011;28754;47.700;7.924;2023-03-01T17:04:23;36.90;;;24.13;;
42614;SDS011;28754;47.700;7.924;2023-03-01T17:07:09;54.83;;;30.13;;
42614;SDS011;28754;47.700;7.924;2023-03-01T17:09:56;52.80;;;32.40;;
42614;SDS011;28754;47.700;7.924;2023-03-01T17:12:43;56.70;;;37.10;;
42614;SDS011;28754;47.700;7.924;2023-03-01T17:15:30;45.85;;;30.13;;
42614;SDS011;28754;47.700;7.924;2023-03-01T17:18:16;51.97;;;25.98;;
42614;SDS011;28754;47.700;7.924;2023-03-01T17:21:21;49.28;;;27.95;;
42614;SDS011;28754;47.700;7.924;2023-03-01T17:24:08;62.72;;;36.10;;
42614;SDS011;28754;47.700;7.924;2023-03-01T17:26:54;55.00;;;32.45;;
42614;SDS011;28754;47.700;7.924;2023-03-01T17:29:41;70.45;;;39.67;;
42614;SDS011;28754;47.700;7.924;2023-03-01T17:32:28;86.72;;;48.40;;
42614;SDS011;28754;47.700;7.924;2023-03-01T17:35:15;48.38;;;29.60;;
42614;SDS011;28754;47.700;7.924;2023-03-01T17:38:01;46.42;;;29.85;;
42614;SDS011;28754;47.700;7.924;2023-03-01T17:40:49;50.35;;;27.60;;
42614;SDS011;28754;47.700;7.924;2023-03-01T17:43:36;40.65;;;27.55;;
42614;SDS011;28754;47.700;7.924;2023-03-01T17:46:23;43.90;;;25.55;;
42614;SDS011;28754;47.700;7.924;2023-03-01T17:49:11;30.90;;;20.85;;
42614;SDS011;28754;47.700;7.924;2023-03-01T17:51:59;39.13;;;22.45;;
42614;SDS011;28754;47.700;7.924;2023-03-01T17:54:45;33.83;;;20.40;;
42614;SDS011;28754;47.700;7.924;2023-03-01T17:57:32;37.65;;;21.88;;
42614;SDS011;28754;47.700;7.924;2023-03-01T18:00:19;37.28;;;22.73;;
42614;SDS011;28754;47.700;7.924;2023-03-01T18:03:06;39.83;;;23.00;;
42614;SDS011;28754;47.700;7.924;2023-03-01T18:05:53;36.58;;;21.52;;
42614;SDS011;28754;47.700;7.924;2023-03-01T18:08:40;29.38;;;19.05;;
42614;SDS011;28754;47.700;7.924;2023-03-01T18:11:27;28.30;;;19.35;;
42614;SDS011;28754;47.700;7.924;2023-03-01T18:14:14;34.72;;;18.45;;
42614;SDS011;28754;47.700;7.924;2023-03-01T18:17:00;32.60;;;19.58;;
42614;SDS011;28754;47.700;7.924;2023-03-01T18:19:51;33.92;;;22.77;;
42614;SDS011;28754;47.700;7.924;2023-03-01T18:22:38;33.13;;;19.38;;
42614;SDS011;28754;47.700;7.924;2023-03-01T18:25:24;28.52;;;17.55;;
42614;SDS011;28754;47.700;7.924;2023-03-01T18:28:11;29.38;;;20.73;;
42614;SDS011;28754;47.700;7.924;2023-03-01T18:30:58;29.58;;;19.23;;
42614;SDS011;28754;47.700;7.924;2023-03-01T18:33:49;31.10;;;21.38;;
42614;SDS011;28754;47.700;7.924;2023-03-01T18:36:39;40.08;;;22.23;;
42614;SDS011;28754;47.700;7.924;2023-03-01T18:39:26;35.95;;;21.45;;
42614;SDS011;28754;47.700;7.924;2023-03-01T18:42:13;32.45;;;21.58;;
42614;SDS011;28754;47.700;7.924;2023-03-01T18:45:01;41.05;;;23.13;;
42614;SDS011;28754;47.700;7.924;2023-03-01T18:47:48;32.97;;;20.55;;
42614;SDS011;28754;47.700;7.924;2023-03-01T18:50:34;33.38;;;19.70;;